createdAt,value
2018-10-09T00:04:35.446Z,94.90
2018-10-09T00:09:57.210Z,94.80
2018-10-09T00:15:20.038Z,94.70
2018-10-09T00:20:41.966Z,94.70
2018-10-09T00:26:04.071Z,94.60
2018-10-09T00:31:26.062Z,94.50
2018-10-09T00:36:48.003Z,94.30
2018-10-09T00:42:10.162Z,94.40
2018-10-09T00:47:32.067Z,94.30
2018-10-09T00:52:54.413Z,94.30
2018-10-09T00:58:16.234Z,94.40
2018-10-09T01:03:38.409Z,94.00
2018-10-09T01:09:00.165Z,94.20
2018-10-09T01:14:22.118Z,94.20
2018-10-09T01:19:43.986Z,94.00
2018-10-09T01:25:06.147Z,94.10
2018-10-09T01:30:28.007Z,94.10
2018-10-09T01:35:50.134Z,94.10
2018-10-09T01:41:12.834Z,94.40
2018-10-09T01:46:34.802Z,94.50
2018-10-09T01:51:56.962Z,94.60
2018-10-09T01:57:18.862Z,94.40
2018-10-09T02:02:41.298Z,94.40
2018-10-09T02:08:03.631Z,94.40
2018-10-09T02:13:25.709Z,94.40
2018-10-09T02:18:47.970Z,94.50
2018-10-09T02:24:09.817Z,94.50
2018-10-09T02:29:31.908Z,94.50
2018-10-09T02:34:53.726Z,94.60
2018-10-09T02:40:15.890Z,94.70
2018-10-09T02:45:38.064Z,95.00
2018-10-09T02:51:00.181Z,95.00
2018-10-09T02:56:22.084Z,94.70
2018-10-09T03:01:43.804Z,94.60
2018-10-09T03:07:05.895Z,95.00
2018-10-09T03:12:27.613Z,95.20
2018-10-09T03:17:49.798Z,95.00
2018-10-09T03:23:11.710Z,94.90
2018-10-09T03:28:33.907Z,94.80
2018-10-09T03:33:55.798Z,94.70
2018-10-09T03:39:18.170Z,94.70
2018-10-09T03:44:39.903Z,94.90
2018-10-09T03:50:02.094Z,95.00
2018-10-09T03:55:24.029Z,94.80
2018-10-09T04:00:45.874Z,95.20
2018-10-09T04:06:08.042Z,95.00
2018-10-09T04:11:30.303Z,95.40
2018-10-09T04:16:52.120Z,95.50
2018-10-09T04:22:21.702Z,95.50
2018-10-09T04:27:43.901Z,95.60
2018-10-09T04:33:05.913Z,95.50
2018-10-09T04:38:28.084Z,95.30
2018-10-09T04:43:49.903Z,95.30
2018-10-09T04:49:11.636Z,95.30
2018-10-09T04:54:33.730Z,95.30
2018-10-09T04:59:55.651Z,95.20
2018-10-09T05:05:18.187Z,95.10
2018-10-09T05:10:39.918Z,95.00
2018-10-09T05:16:02.452Z,95.10
2018-10-09T05:21:24.474Z,95.10
2018-10-09T05:26:46.537Z,95.20
2018-10-09T05:32:08.009Z,95.20
2018-10-09T05:37:30.024Z,95.20
2018-10-09T05:42:51.789Z,95.20
2018-10-09T05:48:14.141Z,95.10
2018-10-09T05:53:36.522Z,95.00
2018-10-09T05:58:58.345Z,95.10
2018-10-09T06:04:20.541Z,95.00
2018-10-09T06:09:42.616Z,95.00
2018-10-09T06:15:04.874Z,94.90
2018-10-09T06:20:27.265Z,95.10
2018-10-09T06:25:49.574Z,95.20
2018-10-09T06:31:11.946Z,95.10
2018-10-09T06:36:33.781Z,95.20
2018-10-09T06:41:56.283Z,95.30
2018-10-09T06:56:59.961Z,95.20
2018-10-09T07:02:22.162Z,95.30
2018-10-09T07:07:44.255Z,95.30
2018-10-09T07:13:06.827Z,95.30
2018-10-09T07:18:29.081Z,95.10
2018-10-09T07:23:51.048Z,95.10
2018-10-09T07:29:13.341Z,95.10
2018-10-09T07:34:35.625Z,95.10
2018-10-09T07:39:57.818Z,94.90
2018-10-09T07:45:20.114Z,94.70
2018-10-09T07:50:42.004Z,94.40
2018-10-09T07:56:05.318Z,94.10
2018-10-09T08:01:27.342Z,94.10
2018-10-09T08:06:49.445Z,93.70
2018-10-09T08:12:11.175Z,93.40
2018-10-09T08:17:33.414Z,93.20
2018-10-09T08:22:55.237Z,93.00
2018-10-09T08:28:17.456Z,93.10
2018-10-09T08:33:39.718Z,92.70
2018-10-09T08:39:01.798Z,92.50
2018-10-09T08:44:23.582Z,92.30
2018-10-09T08:49:45.767Z,92.00
2018-10-09T08:55:07.783Z,91.30
2018-10-09T09:00:29.830Z,91.20
2018-10-09T09:05:51.911Z,90.70
2018-10-09T09:11:14.371Z,89.50
2018-10-09T09:16:36.663Z,90.00
2018-10-09T09:21:58.398Z,87.40
2018-10-09T09:27:23.284Z,85.40
2018-10-09T09:32:45.808Z,84.00
2018-10-09T09:38:08.141Z,82.90
2018-10-09T09:43:30.121Z,80.80
2018-10-09T09:48:52.153Z,79.80
2018-10-09T09:54:14.046Z,82.00
2018-10-09T09:59:36.218Z,78.60
2018-10-09T10:04:58.050Z,79.40
2018-10-09T10:10:20.541Z,79.00
2018-10-09T10:15:42.317Z,76.40
2018-10-09T10:21:04.339Z,77.20
2018-10-09T10:26:26.372Z,76.10
2018-10-09T10:31:48.513Z,74.20
2018-10-09T10:37:10.389Z,73.60
2018-10-09T10:42:33.357Z,73.50
2018-10-09T10:47:55.505Z,71.70
2018-10-09T10:53:17.393Z,74.10
2018-10-09T10:58:41.049Z,71.30
2018-10-09T11:04:04.470Z,69.70
2018-10-09T11:09:28.046Z,70.10
2018-10-09T11:14:50.473Z,66.30
2018-10-09T11:20:12.438Z,67.20
2018-10-09T11:25:35.712Z,64.80
2018-10-09T11:30:58.916Z,65.20
2018-10-09T11:36:20.796Z,64.90
2018-10-09T11:41:42.866Z,64.00
2018-10-09T11:47:06.771Z,67.50
2018-10-09T11:52:28.953Z,66.10
2018-10-09T11:57:50.756Z,64.10
2018-10-09T12:03:12.896Z,63.20
2018-10-09T12:08:34.943Z,63.20
2018-10-09T12:13:58.948Z,64.00
2018-10-09T12:19:21.309Z,65.20
2018-10-09T12:34:23.785Z,67.30
2018-10-09T12:39:45.492Z,69.10
2018-10-09T12:45:07.722Z,67.00
2018-10-09T12:50:33.164Z,68.50
2018-10-09T12:55:57.960Z,69.90
2018-10-09T13:01:20.649Z,72.80
2018-10-09T13:06:42.617Z,72.70
2018-10-09T13:12:04.817Z,73.30
2018-10-09T13:17:26.795Z,69.70
2018-10-09T13:22:49.026Z,74.30
2018-10-09T13:28:11.100Z,73.60
2018-10-09T13:33:33.152Z,71.50
2018-10-09T13:38:55.344Z,69.60
2018-10-09T13:44:17.265Z,69.20
2018-10-09T13:49:39.418Z,68.80
2018-10-09T13:55:01.554Z,71.00
2018-10-09T14:00:23.857Z,70.40
2018-10-09T14:05:45.764Z,72.10
2018-10-09T14:11:08.930Z,72.40
2018-10-09T14:16:30.921Z,72.30
2018-10-09T14:21:52.690Z,75.10
2018-10-09T14:27:14.852Z,76.10
2018-10-09T14:32:37.329Z,76.00
2018-10-09T14:37:59.203Z,76.80
2018-10-09T14:43:21.523Z,76.80
2018-10-09T14:48:43.970Z,78.40
2018-10-09T14:54:06.459Z,79.30
2018-10-09T14:59:29.541Z,77.90
2018-10-09T15:04:52.315Z,78.40
2018-10-09T15:10:17.173Z,79.60
2018-10-09T15:15:40.606Z,79.10
2018-10-09T15:21:03.960Z,79.00
2018-10-09T15:26:26.874Z,81.40
2018-10-09T15:31:50.734Z,81.00
2018-10-09T15:37:13.750Z,82.30
2018-10-09T15:42:35.966Z,82.60
2018-10-09T15:47:57.879Z,83.20
2018-10-09T15:53:20.228Z,81.40
2018-10-09T15:58:42.003Z,80.00
2018-10-09T16:04:04.525Z,81.40
2018-10-09T16:09:26.606Z,82.10
2018-10-09T16:14:48.461Z,82.10
2018-10-09T16:20:10.814Z,82.30
2018-10-09T16:25:32.783Z,84.10
2018-10-09T16:30:54.871Z,85.40
2018-10-09T16:36:16.709Z,86.00
2018-10-09T16:41:40.461Z,86.00
2018-10-09T16:47:06.136Z,86.70
2018-10-09T16:52:28.037Z,87.10
2018-10-09T16:57:50.231Z,87.10
2018-10-09T17:03:12.141Z,87.00
2018-10-09T17:08:34.836Z,87.20
2018-10-09T17:13:57.242Z,87.30
2018-10-09T17:19:19.382Z,87.90
2018-10-09T17:24:41.848Z,88.20
2018-10-09T17:30:04.142Z,89.30
2018-10-09T17:35:26.387Z,90.00
2018-10-09T17:40:48.716Z,90.30
2018-10-09T17:46:14.260Z,90.20
2018-10-09T17:51:36.388Z,90.20
2018-10-09T17:56:58.459Z,90.10
2018-10-09T18:02:20.651Z,90.50
2018-10-09T18:07:43.475Z,90.40
2018-10-09T18:13:08.418Z,90.30
2018-10-09T18:18:31.852Z,90.30
2018-10-09T18:23:57.484Z,90.60
2018-10-09T18:29:20.085Z,90.80
2018-10-09T18:34:41.982Z,91.10
2018-10-09T18:40:03.777Z,91.70
2018-10-09T18:45:26.609Z,91.80
2018-10-09T18:50:48.693Z,92.10
2018-10-09T18:56:10.677Z,91.70
2018-10-09T19:01:32.794Z,91.90
2018-10-09T19:06:55.154Z,92.50
2018-10-09T19:12:17.098Z,92.50
2018-10-09T19:17:39.799Z,92.70
2018-10-09T19:23:01.596Z,92.90
2018-10-09T19:28:23.677Z,93.20
2018-10-09T19:33:46.102Z,93.60
2018-10-09T19:39:12.664Z,94.20
2018-10-09T19:44:37.384Z,94.20
2018-10-09T19:50:00.755Z,94.70
2018-10-09T19:55:23.305Z,94.80
2018-10-09T20:00:45.214Z,94.60
2018-10-09T20:06:07.545Z,95.30
2018-10-09T20:11:29.518Z,95.00
2018-10-09T20:16:51.759Z,95.00
2018-10-09T20:22:13.741Z,95.10
2018-10-09T20:27:38.521Z,95.30
2018-10-09T20:33:00.529Z,95.10
2018-10-09T20:38:22.628Z,94.90
2018-10-09T20:43:47.448Z,94.80
2018-10-09T20:49:09.371Z,94.90
2018-10-09T20:54:31.592Z,95.10
2018-10-09T20:59:53.624Z,95.00
2018-10-09T21:05:16.225Z,95.10
2018-10-09T21:10:42.604Z,95.00
2018-10-09T21:16:06.581Z,95.10
2018-10-09T21:21:28.715Z,95.10
2018-10-09T21:26:50.658Z,95.10
2018-10-09T21:32:16.308Z,95.00
2018-10-09T21:37:38.528Z,94.90
2018-10-09T21:43:00.555Z,94.90
2018-10-09T21:48:22.831Z,94.80
2018-10-09T21:53:45.792Z,94.90
2018-10-09T21:59:08.210Z,94.50
2018-10-09T22:04:30.242Z,94.30
2018-10-09T22:09:51.881Z,94.30
2018-10-09T22:15:13.893Z,94.20
2018-10-09T22:20:35.686Z,94.20
2018-10-09T22:25:57.883Z,94.30
2018-10-09T22:31:20.885Z,94.30
2018-10-09T22:36:42.673Z,94.40
2018-10-09T22:42:05.799Z,94.40
2018-10-09T22:47:28.580Z,94.10
2018-10-09T22:52:50.692Z,94.00
2018-10-09T22:58:12.652Z,94.00
2018-10-09T23:03:35.915Z,93.90
2018-10-09T23:08:58.134Z,94.20
2018-10-09T23:14:20.245Z,94.00
2018-10-09T23:19:41.983Z,93.90
2018-10-09T23:25:04.262Z,93.80
2018-10-09T23:30:26.083Z,93.70
2018-10-09T23:35:47.969Z,93.60
2018-10-09T23:41:10.178Z,93.60
2018-10-09T23:46:32.127Z,93.80
2018-10-09T23:51:54.357Z,93.90
2018-10-09T23:57:16.278Z,94.00
